Kosseir, Egypt

19:27 EET 25. Červenec 2014 (GMT +0200)
Marsa Alam International (HEMA) Výška 253 ft | 25.56 °N, 34.58 °E | Change Station

Current weather conditions updated 27 minutes ago

Clear
Jasno
90 °F
Pocit jako 88 °F
S
2
Vítr proměnlivý Vítr od proměnlivý

Zítra má být podle předpovědi tepleji než dnes.

Dnes
Vysoké -- | Nízké -- °F
--% Možnost srážek
Včera
Vysoké -- | Nízké -- °F
Precip. -- inčů
5:05 AM 6:34 PM
Ubývající srpek, 1% visible
Tlak 29.68 inčů
Viditelnost -9999.0 mílí
Zataženo
Tepelný index 88 °F
Rosný bod 57 °F
Vlhkost 33%
Dešťové srážky 0.00 inčů
Sněhová pokrývka Není k dispozici
UV záření Není k dispozici
Pyl Není k dispozici
Kvalita ovzduší Není k dispozici
Flu Activity Není k dispozici
METAR HEMA 251700Z VRB02KT CAVOK 32/14 Q1005 NOSIG

More Conditions Fewer Conditions

Tlak 29.68 inčů
Viditelnost -9999.0 mílí
Zataženo
Tepelný index 88 °F
Rosný bod 57 °F
Vlhkost 33%
Dešťové srážky 0.00 inčů
Sněhová pokrývka Není k dispozici
UV záření Není k dispozici
Pyl Není k dispozici
Kvalita ovzduší Není k dispozici
Flu Activity Není k dispozici
METAR HEMA 251700Z VRB02KT CAVOK 32/14 Q1005 NOSIG

More Conditions Fewer Conditions

10-Day Weather Forecast

Almanac

Astronomie

Jul. 25, 2014 Východ Západ
Skutečný čas 05:05 EET 18:34 EET
Občanský soumrak 04:40 EET 18:59 EET
Námořní soumrak 04:10 EET 19:29 EET
Astronomický soumrak 03:38 EET 20:00 EET
Měsíc 03:44 EET 17:21 EET
Délka denního světla 14h 18m
Délka dne
13h 28m
Tomorrow will be 1m 0s shorter.
Ubývající srpek, 1% of the Moon is Illuminated
Dnes
Ubývající srpek
Čec 26
Nov
Srp 3
První čtvrť
Srp 10
Úplněk
Srp 17
Ubývající

Dnešní extrémy

Nejvyšší hodnoty ve státě Nejnižší hodnoty ve státě

Community

WunderPhotos

Upload Photos

1,737,365 snímků staženo!

Nearby

Výška sněhu

Not available.

Seizmická činnost

Město Distance Mag. Čas & datum
Žádné zemětřesení v okolí nebylo hlášeno
Minimální zobrazený rozsah je 2.5.

Pobřežní teplota vody

Lokalita Teplota
Stanice nic nehlásí

Poblíž povětrnostní stanice

There are no personal weather stations in this area.